createdAt,value
2022-11-15T00:09:01.716Z,8.30
2022-11-15T00:19:24.614Z,8.59
2022-11-15T00:29:46.102Z,8.81
2022-11-15T00:40:10.781Z,9.02
2022-11-15T00:50:32.248Z,9.26
2022-11-15T01:00:55.810Z,9.41
2022-11-15T01:11:17.245Z,9.53
2022-11-15T01:21:39.984Z,9.65
2022-11-15T01:32:01.393Z,9.70
2022-11-15T01:42:24.150Z,9.79
2022-11-15T01:52:45.618Z,9.98
2022-11-15T02:03:08.815Z,10.17
2022-11-15T02:13:30.673Z,10.33
2022-11-15T02:24:25.858Z,10.47
2022-11-15T02:34:56.929Z,10.66
2022-11-15T02:45:23.524Z,10.81
2022-11-15T02:55:49.642Z,10.89
2022-11-15T03:06:22.728Z,10.96
2022-11-15T03:16:50.402Z,11.02
2022-11-15T03:27:15.514Z,11.11
2022-11-15T03:37:42.705Z,11.12
2022-11-15T03:48:09.535Z,11.18
2022-11-15T03:58:32.006Z,11.18
2022-11-15T04:08:53.385Z,11.23
2022-11-15T04:19:33.349Z,11.25
2022-11-15T04:29:54.913Z,11.27
2022-11-15T04:40:18.485Z,11.26
2022-11-15T04:50:39.928Z,11.23
2022-11-15T05:01:09.036Z,11.21
2022-11-15T05:11:30.416Z,11.17
2022-11-15T05:21:53.014Z,11.17
2022-11-15T05:32:15.532Z,11.19
2022-11-15T05:42:38.417Z,11.14
2022-11-15T05:53:04.951Z,11.11
2022-11-15T06:03:28.701Z,11.17
2022-11-15T06:13:50.665Z,11.23
2022-11-15T06:24:13.559Z,11.26
2022-11-15T06:34:36.784Z,11.30
2022-11-15T06:44:59.512Z,11.23
2022-11-15T06:55:20.926Z,11.22
2022-11-15T07:05:43.582Z,11.15
2022-11-15T07:16:06.224Z,11.17
2022-11-15T07:26:29.244Z,11.15
2022-11-15T07:36:50.935Z,11.15
2022-11-15T07:47:13.613Z,11.10
2022-11-15T07:57:35.156Z,11.05
2022-11-15T08:07:58.644Z,11.02
2022-11-15T08:18:20.342Z,11.00
2022-11-15T08:28:43.878Z,10.86
2022-11-15T08:39:06.022Z,10.86
2022-11-15T08:49:28.692Z,10.84
2022-11-15T08:59:50.310Z,11.01
2022-11-15T09:10:13.301Z,11.05
2022-11-15T09:20:35.182Z,11.14
2022-11-15T09:31:00.825Z,11.35
2022-11-15T09:41:50.684Z,11.38
2022-11-15T09:52:13.969Z,11.41
2022-11-15T10:02:22.771Z,11.36
2022-11-15T10:12:28.256Z,11.35
2022-11-15T10:22:41.510Z,11.50
2022-11-15T10:32:48.382Z,11.60
2022-11-15T10:43:07.622Z,11.59
2022-11-15T10:53:24.282Z,11.56
2022-11-15T11:03:40.681Z,11.68
2022-11-15T11:13:46.724Z,11.77
2022-11-15T11:24:00.784Z,11.83
2022-11-15T11:34:17.633Z,12.05
2022-11-15T11:44:30.576Z,12.27
2022-11-15T11:54:42.359Z,12.57
2022-11-15T12:04:50.653Z,12.65
2022-11-15T12:14:58.591Z,12.85
2022-11-15T12:25:06.711Z,12.98
2022-11-15T12:35:26.486Z,13.04
2022-11-15T12:45:32.320Z,13.08
2022-11-15T12:55:36.767Z,13.03
2022-11-15T13:06:11.432Z,13.09
2022-11-15T13:16:22.848Z,13.16
2022-11-15T13:26:40.987Z,13.32
2022-11-15T13:36:53.236Z,13.43
2022-11-15T13:47:07.495Z,13.48
2022-11-15T13:57:16.556Z,13.39
2022-11-15T14:07:21.701Z,13.26
2022-11-15T14:17:45.677Z,13.19
2022-11-15T14:28:38.586Z,13.14
2022-11-15T14:38:52.019Z,13.10
2022-11-15T14:48:57.781Z,13.06
2022-11-15T14:59:05.344Z,13.02
2022-11-15T15:09:15.288Z,12.97
2022-11-15T15:19:21.716Z,12.90
2022-11-15T15:29:24.732Z,12.88
2022-11-15T15:39:29.072Z,12.81
2022-11-15T15:49:32.104Z,12.78
2022-11-15T15:59:37.581Z,12.78
2022-11-15T16:09:57.854Z,12.77
2022-11-15T16:20:02.487Z,12.56
2022-11-15T16:30:06.441Z,12.26
2022-11-15T16:40:28.387Z,11.92
2022-11-15T16:50:35.116Z,11.72
2022-11-15T17:00:39.557Z,11.57
2022-11-15T17:10:43.081Z,11.47
2022-11-15T17:20:47.453Z,11.41
2022-11-15T17:30:50.478Z,11.33
2022-11-15T17:41:04.017Z,11.25
2022-11-15T17:51:10.775Z,11.16
2022-11-15T18:01:18.640Z,11.08
2022-11-15T18:11:24.835Z,11.07
2022-11-15T18:21:30.472Z,11.07
2022-11-15T18:31:33.396Z,11.11
2022-11-15T18:41:37.775Z,11.10
2022-11-15T18:51:41.960Z,11.23
2022-11-15T19:01:48.318Z,11.30
2022-11-15T19:11:52.225Z,11.38
2022-11-15T19:21:58.144Z,11.38
2022-11-15T19:32:01.165Z,11.40
2022-11-15T19:42:05.524Z,11.45
2022-11-15T19:52:08.737Z,11.51
2022-11-15T20:02:13.483Z,11.53
2022-11-15T20:12:16.394Z,11.60
2022-11-15T20:22:20.818Z,11.68
2022-11-15T20:32:23.846Z,11.69
2022-11-15T20:42:28.179Z,11.71
2022-11-15T20:52:31.101Z,11.72
2022-11-15T21:02:35.849Z,11.72
2022-11-15T21:12:38.957Z,11.71
2022-11-15T21:22:43.371Z,11.74
2022-11-15T21:32:46.650Z,11.79
2022-11-15T21:42:51.084Z,11.79
2022-11-15T21:52:54.018Z,11.78
2022-11-15T22:02:58.346Z,11.78
2022-11-15T22:13:01.399Z,11.79
2022-11-15T22:23:06.318Z,11.79
2022-11-15T22:33:09.272Z,11.73
2022-11-15T22:43:14.752Z,11.76
2022-11-15T22:53:17.820Z,11.74
2022-11-15T23:03:22.599Z,11.78
2022-11-15T23:13:27.567Z,11.78
2022-11-15T23:23:31.889Z,11.79
2022-11-15T23:33:52.421Z,11.81
2022-11-15T23:43:56.735Z,11.83
2022-11-15T23:53:59.631Z,11.85
